Time;durP1;ratioP1;P1;durP2;ratioP2;P2;SDS_P1;SDS_P2;PMS_P1;PMS_P2;Temp;Humidity;BMP_temperature;BMP_pressure;BME280_temperature;BME280_humidity;BME280_pressure;Samples;Min_cycle;Max_cycle;Signal;HPM_P1;HPM_P2
2022/11/02 00:02:19;;;;;;;3.83;0.85;;;;;;;11.97;90.21;101369.56;5035531;28;97509;-32
2022/11/02 00:04:44;;;;;;;0.98;0.60;;;;;;;12.00;89.33;101368.50;5035371;28;102198;-32
2022/11/02 00:07:09;;;;;;;1.05;0.50;;;;;;;11.96;90.06;101375.94;5035488;27;96452;-31
2022/11/02 00:09:35;;;;;;;3.72;0.63;;;;;;;12.03;89.81;101384.59;5035354;28;111109;-32
2022/11/02 00:12:00;;;;;;;0.68;0.50;;;;;;;12.02;90.01;101382.88;5035409;27;99787;-32
2022/11/02 00:14:25;;;;;;;4.25;0.77;;;;;;;12.02;89.32;101380.16;5034748;28;118199;-32
2022/11/02 00:16:51;;;;;;;1.95;0.90;;;;;;;12.04;89.56;101386.38;5034388;27;102897;-32
2022/11/02 00:19:16;;;;;;;0.77;0.40;;;;;;;12.05;89.32;101390.81;5035620;27;96780;-33
2022/11/02 00:21:42;;;;;;;5.40;1.02;;;;;;;12.03;89.51;101425.34;5035369;27;97941;-32
2022/11/02 00:24:09;;;;;;;3.50;0.60;;;;;;;11.94;89.70;101459.34;5036063;27;97244;-32
2022/11/02 00:26:36;;;;;;;0.13;0.13;;;;;;;11.85;88.70;101465.25;5034013;28;96517;-32
2022/11/02 00:29:04;;;;;;;0.65;0.30;;;;;;;11.68;87.92;101452.66;5034015;28;96545;-33
2022/11/02 00:31:29;;;;;;;0.88;0.35;;;;;;;11.61;87.79;101410.53;5033140;28;100954;-32
2022/11/02 00:33:55;;;;;;;2.67;0.35;;;;;;;11.54;87.31;101422.72;5034680;27;112625;-33
2022/11/02 00:36:20;;;;;;;0.25;0.10;;;;;;;11.36;87.10;101433.59;5035584;28;96459;-32
2022/11/02 00:38:46;;;;;;;0.00;0.00;;;;;;;11.36;87.53;101430.88;5035422;27;96770;-32
2022/11/02 00:41:11;;;;;;;2.42;0.40;;;;;;;11.29;86.64;101434.91;5034750;27;103393;-32
2022/11/02 00:43:37;;;;;;;0.75;0.28;;;;;;;11.19;86.51;101395.72;5034864;28;99188;-33
2022/11/02 00:46:02;;;;;;;0.32;0.20;;;;;;;11.14;87.04;101408.66;5034924;28;96637;-33
2022/11/02 00:48:28;;;;;;;0.00;0.00;;;;;;;11.09;86.57;101419.75;5035548;28;96890;-32
2022/11/02 00:50:53;;;;;;;1.00;0.32;;;;;;;11.05;86.36;101410.00;5035021;27;97953;-32
2022/11/02 00:53:19;;;;;;;1.35;0.13;;;;;;;11.01;86.78;101412.03;5034952;27;97801;-33
2022/11/02 00:55:44;;;;;;;1.42;0.20;;;;;;;11.03;86.40;101411.94;5034711;27;96805;-32
2022/11/02 00:58:09;;;;;;;0.30;0.20;;;;;;;10.99;86.91;101422.06;5035175;27;96813;-33
2022/11/02 01:00:34;;;;;;;3.40;0.20;;;;;;;10.94;86.90;101416.03;5034589;28;106593;-32
2022/11/02 01:03:01;;;;;;;0.10;0.03;;;;;;;10.94;86.25;101388.94;5034624;27;97369;-32
2022/11/02 01:05:27;;;;;;;3.00;0.22;;;;;;;10.87;86.40;101401.06;5033554;28;96589;-32
2022/11/02 01:07:52;;;;;;;0.22;0.03;;;;;;;10.87;86.93;101417.31;5033401;28;96814;-34
2022/11/02 01:10:17;;;;;;;2.55;0.25;;;;;;;10.82;87.01;101406.72;5034375;27;102929;-33
2022/11/02 01:12:43;;;;;;;0.15;0.10;;;;;;;10.78;87.03;101397.00;5034859;27;98774;-31
2022/11/02 01:15:09;;;;;;;0.95;0.17;;;;;;;10.77;86.92;101411.53;5034747;27;96475;-33
2022/11/02 01:17:35;;;;;;;0.20;0.20;;;;;;;10.71;87.37;101411.84;5032994;28;96947;-33
2022/11/02 01:20:00;;;;;;;1.17;0.17;;;;;;;10.70;86.54;101404.69;5034043;27;97417;-32
2022/11/02 01:22:26;;;;;;;1.75;0.50;;;;;;;10.65;86.61;101400.44;5034628;28;96685;-32
2022/11/02 01:24:51;;;;;;;0.73;0.13;;;;;;;10.63;87.25;101403.25;5034976;27;96506;-31
2022/11/02 01:27:16;;;;;;;0.88;0.10;;;;;;;10.66;87.57;101413.06;5034288;28;105238;-32
2022/11/02 01:29:42;;;;;;;0.65;0.22;;;;;;;10.66;86.91;101411.22;5033423;28;126747;-32
2022/11/02 01:32:07;;;;;;;2.42;0.40;;;;;;;10.62;86.96;101401.47;5034053;27;97216;-32
2022/11/02 01:34:32;;;;;;;1.80;0.60;;;;;;;10.66;87.21;101419.34;5034268;28;99615;-32
2022/11/02 01:36:58;;;;;;;0.25;0.15;;;;;;;10.62;86.75;101406.91;5034674;28;102408;-32
2022/11/02 01:39:23;;;;;;;5.25;0.43;;;;;;;10.68;86.75;101405.69;5033881;28;109679;-32
2022/11/02 01:41:52;;;;;;;0.20;0.00;;;;;;;10.63;87.04;101397.84;5033983;27;99167;-33
2022/11/02 01:44:34;;;;;;;3.05;0.57;;;;;;;10.61;86.84;101388.91;5032631;28;96670;-33
2022/11/02 01:47:23;;;;;;;0.57;0.05;;;;;;;10.61;86.95;101407.88;5032878;28;96841;-31
2022/11/02 01:49:55;;;;;;;1.75;0.43;;;;;;;10.57;87.09;101403.56;5033956;28;98088;-32
2022/11/02 01:52:26;;;;;;;1.83;0.60;;;;;;;10.58;87.12;101395.38;5032765;28;100915;-32
2022/11/02 01:55:18;;;;;;;3.25;0.35;;;;;;;10.58;87.44;101389.03;5032738;27;96660;-33
2022/11/02 01:57:46;;;;;;;2.53;0.57;;;;;;;10.68;87.18;101390.34;5025545;28;96964;-32
2022/11/02 02:00:15;;;;;;;4.63;0.70;;;;;;;10.69;87.39;101383.06;5032574;28;100614;-32
2022/11/02 02:02:55;;;;;;;0.55;0.17;;;;;;;10.74;87.23;101410.78;5032989;28;100653;-33
2022/11/02 02:05:23;;;;;;;0.32;0.20;;;;;;;10.78;88.13;101418.69;5032749;28;96771;-34
2022/11/02 02:07:49;;;;;;;3.10;0.73;;;;;;;10.83;87.75;101426.56;5032556;28;97909;-32
2022/11/02 02:10:15;;;;;;;3.50;0.40;;;;;;;10.87;88.24;101417.31;5031979;28;100994;-32
2022/11/02 02:12:42;;;;;;;3.88;0.88;;;;;;;10.93;88.12;101402.56;5032456;28;100500;-31
2022/11/02 02:15:08;;;;;;;1.90;0.38;;;;;;;10.98;88.84;101395.03;5032541;28;96672;-32
2022/11/02 02:17:41;;;;;;;3.80;1.02;;;;;;;11.08;89.22;101411.69;5032118;27;96902;-33
2022/11/02 02:20:18;;;;;;;1.25;0.50;;;;;;;11.12;89.69;101410.56;5035971;28;101062;-32
2022/11/02 02:23:15;;;;;;;2.85;0.90;;;;;;;11.15;89.04;101411.25;5037036;27;99024;-31
2022/11/02 02:25:46;;;;;;;1.02;0.45;;;;;;;11.17;88.86;101389.50;5005235;27;96829;-33
2022/11/02 02:28:20;;;;;;;1.38;0.28;;;;;;;11.16;89.11;101406.72;5037779;27;96523;-32
2022/11/02 02:30:53;;;;;;;1.92;0.35;;;;;;;11.19;88.70;101412.84;5035526;28;101498;-31
2022/11/02 02:33:46;;;;;;;4.43;1.20;;;;;;;11.21;88.14;101408.22;5037339;28;97405;-32
2022/11/02 02:36:28;;;;;;;2.55;0.73;;;;;;;11.24;88.40;101415.31;5035389;28;96666;-33
2022/11/02 02:39:05;;;;;;;1.27;0.32;;;;;;;11.22;88.15;101418.09;5037479;27;96554;-31
2022/11/02 02:41:40;;;;;;;1.10;0.57;;;;;;;11.22;88.44;101414.50;5035570;28;100975;-32
2022/11/02 02:44:10;;;;;;;4.35;0.95;;;;;;;11.23;87.75;101429.84;5035433;28;100946;-32
2022/11/02 02:46:39;;;;;;;0.77;0.32;;;;;;;11.23;87.91;101429.84;5035838;28;96535;-32
2022/11/02 02:49:09;;;;;;;0.52;0.20;;;;;;;11.19;88.03;101441.81;5036666;27;96836;-32
2022/11/02 02:51:36;;;;;;;5.00;0.38;;;;;;;11.16;88.46;101413.03;5036786;28;97437;-32
2022/11/02 02:54:09;;;;;;;2.15;0.60;;;;;;;11.17;88.41;101422.91;5035917;28;100872;-32
2022/11/02 02:56:39;;;;;;;1.85;0.50;;;;;;;11.16;89.34;101421.16;5035267;28;96573;-32
2022/11/02 02:59:10;;;;;;;1.60;0.52;;;;;;;11.16;89.52;101414.88;5035472;28;96954;-33
2022/11/02 03:01:39;;;;;;;7.95;0.82;;;;;;;11.15;89.56;101413.97;5034596;28;101351;-34
2022/11/02 03:04:04;;;;;;;2.38;0.77;;;;;;;11.14;89.20;101419.50;5034951;28;100968;-33
2022/11/02 03:06:32;;;;;;;2.22;0.68;;;;;;;11.13;89.60;101412.28;5036750;28;96539;-33
2022/11/02 03:09:06;;;;;;;5.28;0.77;;;;;;;11.15;89.28;101421.22;5035111;28;96832;-32
2022/11/02 03:11:33;;;;;;;4.55;0.75;;;;;;;11.13;89.84;101417.72;5036568;27;98133;-32
2022/11/02 03:14:06;;;;;;;4.45;0.60;;;;;;;11.15;89.26;101426.66;5035994;27;99154;-32
2022/11/02 03:16:59;;;;;;;3.03;0.75;;;;;;;11.15;89.28;101423.94;5034801;28;97355;-34
2022/11/02 03:19:49;;;;;;;5.13;0.55;;;;;;;11.17;89.05;101425.59;5036883;28;96889;-32
2022/11/02 03:22:21;;;;;;;6.13;1.17;;;;;;;11.16;89.29;101420.28;5036360;28;98022;-33
2022/11/02 03:25:11;;;;;;;8.30;1.13;;;;;;;11.16;88.92;101431.13;5034975;27;100755;-34
2022/11/02 03:27:41;;;;;;;3.53;0.82;;;;;;;11.17;88.55;101419.31;5036157;27;96730;-32
2022/11/02 03:30:13;;;;;;;2.03;0.57;;;;;;;11.16;88.50;101425.72;5035404;27;96563;-32
2022/11/02 03:32:51;;;;;;;10.07;0.95;;;;;;;11.17;88.31;101436.44;5034630;28;101597;-32
2022/11/02 03:35:43;;;;;;;4.30;1.00;;;;;;;11.19;88.71;101425.53;5034752;28;100584;-32
2022/11/02 03:38:18;;;;;;;0.50;0.25;;;;;;;11.19;88.64;101420.09;5035023;28;96588;-32
2022/11/02 03:40:47;;;;;;;4.38;0.65;;;;;;;11.17;88.41;101459.97;5034911;28;96777;-32
2022/11/02 03:43:15;;;;;;;8.98;1.00;;;;;;;11.17;88.40;101452.72;5034224;28;98778;-32
2022/11/02 03:45:49;;;;;;;2.92;0.40;;;;;;;11.16;88.41;101436.56;5034654;27;100741;-31
2022/11/02 03:48:16;;;;;;;6.30;0.88;;;;;;;11.17;88.24;101457.28;5034663;28;96584;-32
2022/11/02 03:50:47;;;;;;;5.20;0.50;;;;;;;11.17;88.14;101454.56;5034611;28;96844;-32
2022/11/02 03:53:23;;;;;;;6.40;1.00;;;;;;;11.17;88.17;101465.41;5033806;28;101132;-31
2022/11/02 03:56:05;;;;;;;5.03;0.80;;;;;;;11.16;88.02;101478.09;5035609;27;97804;-32
2022/11/02 03:58:30;;;;;;;1.42;0.43;;;;;;;11.15;88.18;101481.75;5034596;28;96610;-32
2022/11/02 04:01:00;;;;;;;8.50;1.05;;;;;;;11.17;87.90;101484.38;5035782;27;96815;-32
2022/11/02 04:03:27;;;;;;;6.40;0.70;;;;;;;11.14;87.82;101487.28;5034092;28;101131;-32
2022/11/02 04:05:53;;;;;;;1.15;0.50;;;;;;;11.17;88.04;101493.41;5035477;27;97287;-32
2022/11/02 04:08:28;;;;;;;4.35;0.68;;;;;;;11.20;87.78;101504.09;5035753;27;96568;-32
2022/11/02 04:16:22;;;;;;;4.47;0.73;;;;;;;11.16;88.25;101515.19;5035306;28;97023;-33
2022/11/02 04:21:31;;;;;;;7.30;0.80;;;;;;;11.12;88.16;101519.88;5034141;28;96555;-32
2022/11/02 04:26:41;;;;;;;2.13;0.60;;;;;;;11.15;87.70;101535.97;5035719;28;97006;-32
2022/11/02 04:29:06;;;;;;;2.03;0.35;;;;;;;11.12;88.09;101533.44;5035341;27;96856;-32
2022/11/02 04:31:32;;;;;;;4.38;0.68;;;;;;;11.17;88.20;101549.47;5035601;27;96755;-32
2022/11/02 04:33:58;;;;;;;2.78;0.65;;;;;;;11.17;88.33;101560.31;5034902;27;108408;-31
2022/11/02 04:36:24;;;;;;;4.57;0.60;;;;;;;11.17;87.94;101566.59;5033893;28;100675;-31
2022/11/02 04:38:49;;;;;;;5.68;0.65;;;;;;;11.19;88.16;101564.69;5034053;28;96546;-32
2022/11/02 04:44:01;;;;;;;2.85;0.55;;;;;;;11.21;88.31;101572.75;5034947;28;97022;-33
2022/11/02 04:46:29;;;;;;;8.40;0.82;;;;;;;11.25;88.26;101583.38;5033561;28;100871;-30
2022/11/02 04:48:55;;;;;;;3.10;0.50;;;;;;;11.24;87.90;101605.13;5033648;28;96697;-32
2022/11/02 04:51:22;;;;;;;0.20;0.10;;;;;;;11.27;88.24;101607.69;5035177;28;96844;-32
2022/11/02 04:53:47;;;;;;;3.78;0.57;;;;;;;11.27;88.39;101616.72;5033396;28;101238;-33
2022/11/02 04:56:13;;;;;;;6.00;0.50;;;;;;;11.26;88.24;101608.66;5032966;28;100956;-31
2022/11/02 04:58:39;;;;;;;1.75;0.73;;;;;;;11.29;88.05;101621.16;5035322;27;96710;-32
2022/11/02 05:01:10;;;;;;;3.03;0.60;;;;;;;11.27;87.93;101630.28;5034136;28;96877;-32
2022/11/02 05:03:35;;;;;;;3.38;0.50;;;;;;;11.27;87.97;101623.94;5033610;28;100638;-32
2022/11/02 05:06:01;;;;;;;2.95;0.55;;;;;;;11.28;88.10;101642.00;5034892;27;98959;-32
2022/11/02 05:08:26;;;;;;;2.13;0.52;;;;;;;11.27;88.04;101643.84;5034371;27;96620;-32
2022/11/02 05:10:55;;;;;;;0.80;0.40;;;;;;;11.25;87.53;101640.31;5034780;28;97348;-33
2022/11/02 05:13:22;;;;;;;3.72;0.60;;;;;;;11.26;87.24;101649.31;5033088;28;101242;-33
2022/11/02 05:15:47;;;;;;;2.47;0.70;;;;;;;11.28;87.14;101644.72;5032960;28;101160;-32
2022/11/02 05:18:13;;;;;;;0.68;0.22;;;;;;;11.27;87.06;101654.69;5034228;27;96930;-33
2022/11/02 05:20:38;;;;;;;1.40;0.50;;;;;;;11.26;86.70;101658.34;5034769;27;96854;-32
2022/11/02 05:23:05;;;;;;;3.28;0.70;;;;;;;11.24;86.64;101668.38;5034594;27;97500;-32
2022/11/02 05:25:31;;;;;;;1.33;0.43;;;;;;;11.25;86.39;101663.88;5034552;27;99273;-33
2022/11/02 05:27:56;;;;;;;0.68;0.30;;;;;;;11.27;86.24;101672.78;5034496;27;96544;-32
2022/11/02 05:30:22;;;;;;;2.83;0.22;;;;;;;11.27;85.46;101675.47;5034618;27;96822;-31
2022/11/02 05:32:48;;;;;;;5.68;0.65;;;;;;;11.30;85.25;101685.28;5032352;28;101367;-32
2022/11/02 05:35:13;;;;;;;5.80;1.10;;;;;;;11.32;84.66;101680.66;5034499;27;97349;-32
2022/11/02 05:37:38;;;;;;;2.13;0.50;;;;;;;11.29;84.78;101684.41;5034458;28;96494;-32
2022/11/02 05:40:04;;;;;;;1.30;0.47;;;;;;;11.31;84.41;101685.22;5034560;27;97734;-33
2022/11/02 05:42:30;;;;;;;5.05;0.50;;;;;;;11.34;84.39;101701.34;5032676;28;101359;-32
2022/11/02 05:44:55;;;;;;;1.17;0.32;;;;;;;11.31;84.12;101703.34;5034291;27;100381;-32
2022/11/02 05:47:20;;;;;;;0.80;0.17;;;;;;;11.26;84.16;101706.28;5034315;28;96587;-32
2022/11/02 05:49:46;;;;;;;2.83;0.50;;;;;;;11.25;84.75;101713.56;5034883;27;96712;-33
2022/11/02 05:52:11;;;;;;;2.60;0.50;;;;;;;11.26;84.55;101717.13;5034148;27;98391;-32
2022/11/02 05:54:36;;;;;;;2.38;0.47;;;;;;;11.22;84.06;101721.81;5036819;27;98744;-32
2022/11/02 05:57:02;;;;;;;0.65;0.40;;;;;;;11.21;83.77;101724.63;5037340;27;96530;-32
2022/11/02 05:59:27;;;;;;;0.85;0.50;;;;;;;11.23;83.72;101733.56;5037973;27;96729;-32
2022/11/02 06:01:52;;;;;;;5.45;0.60;;;;;;;11.21;84.01;101740.91;5037738;27;97954;-32
2022/11/02 06:04:18;;;;;;;1.27;0.45;;;;;;;11.21;83.74;101736.34;5037618;28;98889;-32
2022/11/02 06:06:44;;;;;;;1.98;0.57;;;;;;;11.19;83.58;101750.94;5037919;27;96614;-32
2022/11/02 06:09:09;;;;;;;2.05;0.38;;;;;;;11.20;83.16;101748.16;5037618;27;96809;-32
2022/11/02 06:11:35;;;;;;;4.88;0.43;;;;;;;11.23;82.25;101753.44;5037385;27;98356;-32
2022/11/02 06:14:02;;;;;;;2.33;0.77;;;;;;;11.23;82.36;101753.44;5037697;27;97712;-32
2022/11/02 06:16:28;;;;;;;0.93;0.38;;;;;;;11.23;81.81;101766.97;5035830;28;96643;-32
2022/11/02 06:18:53;;;;;;;3.80;0.43;;;;;;;11.23;81.93;101776.97;5036522;27;96714;-32
2022/11/02 06:21:19;;;;;;;3.03;0.82;;;;;;;11.21;81.92;101768.00;5036639;27;99253;-32
2022/11/02 06:23:46;;;;;;;3.78;0.65;;;;;;;11.25;82.16;101783.19;5037379;28;97307;-32
2022/11/02 06:26:11;;;;;;;0.90;0.43;;;;;;;11.26;81.84;101784.94;5036029;28;96726;-32
2022/11/02 06:28:37;;;;;;;2.60;0.60;;;;;;;11.25;81.88;101791.34;5037341;27;96805;-32
2022/11/02 06:31:02;;;;;;;1.55;0.70;;;;;;;11.23;81.94;101785.97;5037135;27;97602;-32
2022/11/02 06:33:28;;;;;;;5.10;1.00;;;;;;;11.26;81.68;101803.91;5037119;28;97947;-33
2022/11/02 06:35:54;;;;;;;1.45;0.30;;;;;;;11.28;81.48;101810.16;5037140;28;96554;-32
2022/11/02 06:38:20;;;;;;;2.03;0.38;;;;;;;11.24;81.15;101803.97;5037653;28;96903;-32
2022/11/02 06:40:52;;;;;;;1.15;0.20;;;;;;;11.23;80.76;101812.22;5035449;28;101407;-33
2022/11/02 06:43:18;;;;;;;1.52;0.55;;;;;;;11.21;81.61;101828.56;5035430;28;101059;-31
2022/11/02 06:45:43;;;;;;;2.38;0.70;;;;;;;11.18;81.29;101835.97;5036680;28;97290;-32
2022/11/02 06:48:09;;;;;;;3.72;0.52;;;;;;;11.19;81.46;101840.44;5037011;27;96754;-32
2022/11/02 06:50:34;;;;;;;1.65;0.68;;;;;;;11.14;80.48;101843.34;5036811;27;98172;-32
2022/11/02 06:52:59;;;;;;;3.25;0.75;;;;;;;11.23;81.23;101855.59;5036474;28;102790;-32
2022/11/02 06:55:24;;;;;;;3.70;0.73;;;;;;;11.21;80.35;101852.97;5036596;27;96503;-32
2022/11/02 06:57:50;;;;;;;4.05;0.73;;;;;;;11.24;80.82;101863.66;5037132;27;96857;-33
2022/11/02 07:00:18;;;;;;;1.20;0.38;;;;;;;11.26;80.35;101858.16;5036703;27;97926;-31
2022/11/02 07:02:44;;;;;;;0.55;0.50;;;;;;;11.29;80.83;101876.13;5035422;28;100737;-32
2022/11/02 07:05:09;;;;;;;2.22;0.47;;;;;;;11.25;80.18;101870.84;5035436;27;96550;-32
2022/11/02 07:07:34;;;;;;;3.60;0.52;;;;;;;11.25;80.13;101883.53;5036396;27;96790;-32
2022/11/02 07:10:00;;;;;;;2.70;0.40;;;;;;;11.26;80.07;101890.72;5035924;27;99145;-33
2022/11/02 07:12:25;;;;;;;2.80;0.65;;;;;;;11.23;79.76;101891.75;5036529;27;99216;-32
2022/11/02 07:14:51;;;;;;;2.70;0.43;;;;;;;11.23;79.99;101899.00;5036431;27;96538;-33
2022/11/02 07:17:16;;;;;;;4.03;0.65;;;;;;;11.25;79.57;101902.53;5036335;27;96779;-31
2022/11/02 07:19:41;;;;;;;2.97;0.68;;;;;;;11.23;78.42;101899.88;5036153;27;98963;-31
2022/11/02 07:22:08;;;;;;;3.03;0.70;;;;;;;11.27;79.58;101903.31;5036418;27;97806;-32
2022/11/02 07:24:33;;;;;;;2.25;0.43;;;;;;;11.31;79.46;101912.19;5035076;28;96661;-32
2022/11/02 07:26:58;;;;;;;1.67;0.63;;;;;;;11.30;78.98;101913.13;5036548;28;96647;-31
2022/11/02 07:29:24;;;;;;;1.58;0.30;;;;;;;11.30;79.16;101924.88;5036409;27;97283;-33
2022/11/02 07:31:49;;;;;;;6.50;0.85;;;;;;;11.29;79.29;101927.66;5035726;28;109246;-31
2022/11/02 07:34:15;;;;;;;4.85;0.88;;;;;;;11.33;79.04;101930.16;5035965;28;96589;-32
2022/11/02 07:36:40;;;;;;;2.08;0.60;;;;;;;11.33;78.87;101930.16;5035740;28;96791;-32
2022/11/02 07:39:06;;;;;;;2.38;0.73;;;;;;;11.36;78.47;101930.00;5036062;27;98035;-32
2022/11/02 07:41:32;;;;;;;2.85;0.95;;;;;;;11.39;78.89;101946.16;5035894;28;97776;-32
2022/11/02 07:43:58;;;;;;;2.85;0.55;;;;;;;11.38;78.35;101952.50;5034773;28;96663;-32
2022/11/02 07:46:23;;;;;;;2.42;0.50;;;;;;;11.39;78.27;101946.16;5034835;27;96770;-32
2022/11/02 07:48:49;;;;;;;5.43;0.75;;;;;;;11.43;78.55;101955.88;5034908;27;98384;-33
2022/11/02 07:51:14;;;;;;;1.02;0.30;;;;;;;11.45;78.69;101959.41;5036208;27;97724;-31
2022/11/02 07:53:40;;;;;;;0.82;0.52;;;;;;;11.45;78.50;101950.41;5036125;27;96447;-31
2022/11/02 07:56:06;;;;;;;0.38;0.25;;;;;;;11.49;79.01;101962.88;5036051;28;96756;-31
2022/11/02 07:58:32;;;;;;;4.03;0.52;;;;;;;11.50;78.73;101963.75;5017075;28;101007;-33
2022/11/02 08:00:58;;;;;;;1.55;0.63;;;;;;;11.48;78.12;101967.41;5034383;28;97151;-32
2022/11/02 08:03:24;;;;;;;4.32;0.80;;;;;;;11.50;78.10;101978.19;5033217;28;96782;-32
2022/11/02 08:05:50;;;;;;;3.38;0.88;;;;;;;11.54;78.30;101974.38;5033410;28;97004;-33
2022/11/02 08:08:18;;;;;;;3.50;0.50;;;;;;;11.57;78.00;101978.78;5034577;27;97990;-31
2022/11/02 08:10:45;;;;;;;6.65;0.82;;;;;;;11.58;77.63;101983.25;5033001;28;101005;-32
2022/11/02 08:13:13;;;;;;;5.82;0.50;;;;;;;11.61;77.33;101977.69;5033300;28;97138;-33
2022/11/02 08:15:39;;;;;;;1.00;0.35;;;;;;;11.62;77.38;101979.44;5034966;27;96933;-32
2022/11/02 08:18:22;;;;;;;1.50;0.17;;;;;;;11.61;77.39;101980.41;5035115;27;97974;-32
2022/11/02 08:20:48;;;;;;;3.28;0.43;;;;;;;11.64;77.96;101988.38;5033924;28;101324;-33
2022/11/02 08:23:15;;;;;;;4.85;0.52;;;;;;;11.65;77.47;101984.72;5035224;28;96547;-31
2022/11/02 08:25:41;;;;;;;1.63;0.45;;;;;;;11.64;77.63;101977.53;5034149;27;96907;-32
2022/11/02 08:28:10;;;;;;;19.40;0.60;;;;;;;11.66;77.56;101989.19;5033622;28;101605;-31
2022/11/02 08:30:36;;;;;;;4.13;0.20;;;;;;;11.65;77.83;101985.59;5034812;27;97355;-32
2022/11/02 08:33:04;;;;;;;6.22;1.17;;;;;;;11.66;78.02;101998.22;5034154;28;96559;-33
2022/11/02 08:35:29;;;;;;;1.58;0.55;;;;;;;11.69;77.02;102002.63;5035353;27;96776;-32
2022/11/02 08:37:56;;;;;;;3.85;0.50;;;;;;;11.68;76.86;101999.03;5035238;27;97844;-32
2022/11/02 08:40:21;;;;;;;0.73;0.40;;;;;;;11.68;76.05;102001.75;5033873;28;101233;-31
2022/11/02 08:42:47;;;;;;;3.10;0.65;;;;;;;11.73;75.83;102009.66;5035201;27;96515;-32
2022/11/02 08:45:12;;;;;;;0.98;0.30;;;;;;;11.76;75.81;102009.50;5034941;27;96872;-31
2022/11/02 08:47:41;;;;;;;1.15;0.47;;;;;;;11.80;75.85;102022.00;5034586;28;97543;-32
2022/11/02 08:50:08;;;;;;;2.38;0.55;;;;;;;11.81;75.65;102018.31;5033546;28;101065;-32
2022/11/02 08:52:35;;;;;;;3.03;0.30;;;;;;;11.86;76.44;102016.25;5033780;28;96565;-32
2022/11/02 08:55:00;;;;;;;2.05;0.43;;;;;;;11.91;76.52;102018.78;5033758;28;96810;-32
2022/11/02 08:57:26;;;;;;;2.03;0.38;;;;;;;11.97;76.02;102023.94;5034834;27;97858;-32
2022/11/02 08:59:51;;;;;;;0.73;0.22;;;;;;;12.05;75.11;102029.84;5034425;27;107291;-31
2022/11/02 09:02:16;;;;;;;1.80;0.43;;;;;;;12.09;75.76;102034.19;5034931;28;96514;-31
2022/11/02 09:04:42;;;;;;;0.32;0.15;;;;;;;12.10;76.67;102040.50;5035395;27;96962;-31
2022/11/02 09:07:07;;;;;;;2.15;0.50;;;;;;;12.08;77.35;102046.03;5035099;28;97407;-31
2022/11/02 09:09:32;;;;;;;2.38;0.70;;;;;;;12.16;77.45;102042.06;5034636;27;97304;-32
2022/11/02 09:11:57;;;;;;;3.05;0.63;;;;;;;12.18;77.55;102045.53;5034670;27;96587;-32
2022/11/02 09:14:23;;;;;;;2.28;0.52;;;;;;;12.20;77.89;102055.38;5034103;28;106629;-32
2022/11/02 09:16:48;;;;;;;0.85;0.43;;;;;;;12.30;77.97;102048.56;5034245;27;97934;-31
2022/11/02 09:19:13;;;;;;;0.93;0.40;;;;;;;12.42;77.65;102048.88;5034659;27;98891;-32
2022/11/02 09:21:39;;;;;;;7.40;0.47;;;;;;;12.53;77.41;102051.94;5034670;27;96474;-33
2022/11/02 09:24:04;;;;;;;4.10;0.63;;;;;;;12.58;77.48;102057.16;5034879;27;96795;-31
2022/11/02 09:26:30;;;;;;;2.38;0.40;;;;;;;12.57;77.89;102050.84;5034337;28;99271;-32
2022/11/02 09:28:55;;;;;;;1.15;0.50;;;;;;;12.57;77.64;102042.69;5036472;27;96565;-32
2022/11/02 09:31:20;;;;;;;2.25;0.32;;;;;;;12.60;77.62;102049.81;5038111;27;96674;-31
2022/11/02 09:33:45;;;;;;;3.35;0.90;;;;;;;12.59;77.17;102048.94;5036689;28;96953;-33
2022/11/02 09:36:11;;;;;;;3.33;0.63;;;;;;;12.67;77.43;102059.41;5037262;28;108135;-32
2022/11/02 09:38:37;;;;;;;7.07;0.70;;;;;;;12.74;77.26;102069.88;5037867;27;97794;-32
2022/11/02 09:41:06;;;;;;;2.83;0.50;;;;;;;12.80;77.13;102070.53;5036886;28;96495;-32
2022/11/02 09:44:13;;;;;;;1.80;0.50;;;;;;;12.91;77.06;102069.00;5036509;28;96942;-31
2022/11/02 09:46:43;;;;;;;3.03;0.35;;;;;;;13.06;75.82;102078.22;4996524;28;101340;-32
2022/11/02 09:49:16;;;;;;;3.70;0.68;;;;;;;13.36;75.55;102077.59;5036292;28;101020;-32
2022/11/02 09:51:53;;;;;;;1.50;0.35;;;;;;;13.67;74.53;102081.38;5036541;28;96598;-32
2022/11/02 09:54:21;;;;;;;0.80;0.30;;;;;;;13.84;71.90;102084.03;5036857;28;96731;-32
2022/11/02 09:56:48;;;;;;;1.85;0.40;;;;;;;13.99;70.96;102083.19;5035756;27;101184;-31
2022/11/02 09:59:19;;;;;;;2.75;0.52;;;;;;;14.18;72.22;102085.78;5036219;28;101087;-32
2022/11/02 10:02:04;;;;;;;1.50;0.30;;;;;;;14.43;72.13;102085.22;5036056;28;96719;-32
2022/11/02 10:04:35;;;;;;;2.45;0.50;;;;;;;14.58;71.34;102086.19;5037758;28;96582;-32
2022/11/02 10:07:09;;;;;;;2.40;0.63;;;;;;;14.68;71.14;102080.22;5035973;28;98319;-31
2022/11/02 10:09:46;;;;;;;0.85;0.40;;;;;;;14.70;71.90;102086.47;5037237;28;98009;-31
2022/11/02 10:12:15;;;;;;;2.38;0.38;;;;;;;14.75;70.87;102085.19;5037997;27;96691;-32
2022/11/02 10:15:19;;;;;;;7.63;0.47;;;;;;;14.94;70.82;102095.03;5036087;28;96727;-31
2022/11/02 10:17:46;;;;;;;3.15;0.32;;;;;;;15.04;70.15;102094.41;5026856;28;97976;-31
2022/11/02 10:20:25;;;;;;;3.30;0.63;;;;;;;15.10;68.79;102093.13;5036087;28;101119;-31
2022/11/02 10:22:57;;;;;;;8.10;1.20;;;;;;;15.21;69.23;102097.94;5036103;28;96642;-31
2022/11/02 10:25:23;;;;;;;5.80;0.77;;;;;;;15.24;69.96;102101.34;5035946;28;96904;-32
2022/11/02 10:27:53;;;;;;;3.55;0.63;;;;;;;15.16;68.63;102108.25;5036588;28;97586;-31
2022/11/02 10:30:19;;;;;;;11.25;0.98;;;;;;;15.20;69.10;102109.81;5035585;28;102280;-33
2022/11/02 10:32:51;;;;;;;4.15;0.65;;;;;;;15.23;68.59;102109.63;5036039;28;96719;-33
2022/11/02 10:35:22;;;;;;;4.00;0.65;;;;;;;15.26;67.19;102114.94;5036148;28;96598;-32
2022/11/02 10:38:02;;;;;;;6.57;1.10;;;;;;;15.31;68.01;102111.91;5035377;27;98978;-31
2022/11/02 10:40:48;;;;;;;6.03;0.82;;;;;;;15.26;68.83;102123.13;5034980;27;100609;-31
2022/11/02 10:43:24;;;;;;;1.23;0.45;;;;;;;15.33;68.00;102126.34;5035887;28;96715;-31
2022/11/02 10:45:58;;;;;;;3.70;1.17;;;;;;;15.34;68.28;102120.78;5036047;27;96607;-32
2022/11/02 10:48:46;;;;;;;3.92;0.40;;;;;;;15.47;68.29;102120.94;5036961;27;97752;-31
2022/11/02 10:51:14;;;;;;;2.95;0.60;;;;;;;15.60;68.38;102121.91;5035477;28;101112;-32
2022/11/02 10:53:48;;;;;;;4.43;0.60;;;;;;;15.81;67.26;102111.50;5035193;28;96551;-32
2022/11/02 10:56:20;;;;;;;0.70;0.43;;;;;;;15.99;67.82;102120.38;5035261;27;96764;-31
2022/11/02 10:58:59;;;;;;;10.27;1.08;;;;;;;15.98;66.15;102118.63;5035247;28;101036;-31
2022/11/02 11:01:26;;;;;;;3.75;0.60;;;;;;;15.90;67.50;102135.53;5036665;27;99136;-31
2022/11/02 11:03:53;;;;;;;2.67;0.80;;;;;;;16.04;66.10;102120.97;5036982;28;96744;-31
2022/11/02 11:06:19;;;;;;;3.40;0.60;;;;;;;16.02;65.56;102113.88;5035329;28;96927;-33
2022/11/02 11:08:48;;;;;;;4.55;1.33;;;;;;;15.97;66.63;102111.44;5036228;28;99332;-31
2022/11/02 11:11:14;;;;;;;6.20;1.02;;;;;;;15.88;65.32;102106.53;5036594;27;98960;-31
2022/11/02 11:13:41;;;;;;;4.68;1.13;;;;;;;16.01;65.88;102098.44;5036661;27;96708;-32
2022/11/02 11:16:08;;;;;;;4.43;0.60;;;;;;;16.07;66.42;102087.97;5034948;28;97287;-31
2022/11/02 11:18:34;;;;;;;2.05;0.52;;;;;;;16.30;65.36;102091.03;5034043;28;99065;-32
2022/11/02 11:21:00;;;;;;;2.45;0.60;;;;;;;16.31;63.41;102087.34;5036146;27;99211;-33
2022/11/02 11:23:26;;;;;;;5.85;0.95;;;;;;;16.22;64.17;102093.41;5035217;28;96677;-31
2022/11/02 11:26:05;;;;;;;3.05;0.85;;;;;;;16.33;64.86;102090.88;5035233;28;96989;-32
2022/11/02 11:28:41;;;;;;;3.88;0.40;;;;;;;16.41;64.95;102106.75;5034812;28;99105;-31
2022/11/02 11:31:13;;;;;;;2.90;0.88;;;;;;;16.58;64.25;102105.63;5034885;28;101054;-32
2022/11/02 11:33:53;;;;;;;8.73;0.85;;;;;;;16.69;64.87;102111.28;5036325;27;96566;-31
2022/11/02 11:36:31;;;;;;;4.00;0.98;;;;;;;16.67;63.99;102115.97;5035409;28;96908;-31
2022/11/02 11:39:02;;;;;;;4.60;0.55;;;;;;;16.55;63.90;102128.59;5036246;28;97532;-34
2022/11/02 11:41:30;;;;;;;3.10;0.70;;;;;;;16.49;64.05;102110.75;5034660;28;100997;-31
2022/11/02 11:43:56;;;;;;;1.00;0.47;;;;;;;16.51;63.18;102096.97;5034381;28;96654;-32
2022/11/02 11:46:22;;;;;;;6.43;0.80;;;;;;;16.43;64.68;102092.00;5036072;27;96839;-31